Terminal Aerodrome Forecast
Issued by NWS

Home | Current Version | Previous Version | Text Only | Print | Product List | Glossary On
Versions: 1 2 3 4 5 6 7 8 9 10 11 12 13 14
000
FTUS45 KGJT 192324
TAFMTJ
TAF
KMTJ 192324Z 2000/2024 30006KT P6SM VCTS FEW050 BKN070CB OVC100
      TEMPO 2000/2002 VRB15G25KT -TSRA SCT040 BKN060CB
     FM200200 15007KT P6SM VCSH SCT070 BKN100
     FM200600 14005KT P6SM SCT100
     FM201800 34006KT P6SM SCT100 SCT250=

USA.gov is the U.S. government's official web portal to all federal, state and local government web resources and services.